This is the latest recevied weather packets stored in our database for station/object F1ZRP-13. If no packets are shown the sender has not sent any weather packets the latest 10 day(s).
| Time | Temp. | Humidity | Pressure | Rain* | Wind** | Luminosity | Snow |
|---|---|---|---|---|---|---|---|
| 1777990567 | 13.89° C | 93% | 1009 hPa | - | - | - | - |
| 1777989865 | 13.89° C | 93% | 1009.1 hPa | - | - | - | - |
| 1777988995 | 13.33° C | 93% | 1009.2 hPa | - | - | - | - |
| 1777988246 | 13.33° C | 93% | 1009.3 hPa | - | - | - | - |
| 1777987482 | 13.33° C | 93% | 1009.4 hPa | - | - | - | - |
| 1777986421 | 13.33° C | 93% | 1009.5 hPa | - | - | - | - |
| 1777985224 | 13.33° C | 93% | 1009.6 hPa | - | - | - | - |
| 1777984182 | 13.33° C | 93% | 1009.7 hPa | - | - | - | - |
| 1777983014 | 13.33° C | 93% | 1009.8 hPa | - | - | - | - |
| 1777983013 | 13.33° C | 93% | 1009.8 hPa | - | - | - | - |
| 1777982197 | 13.33° C | 93% | 1009.8 hPa | - | - | - | - |
| 1777981374 | 12.78° C | 92% | 1009.9 hPa | - | - | - | - |
| 1777980419 | 13.33° C | 92% | 1010 hPa | - | - | - | - |
| 1777979617 | 13.33° C | 91% | 1010 hPa | - | - | - | - |
| 1777979617 | 13.33° C | 91% | 1010 hPa | - | - | - | - |
| 1777978653 | 14.44° C | 83% | 1010 hPa | - | - | - | - |
| 1777977718 | 15° C | 79% | 1010 hPa | - | - | - | - |
| 1777976908 | 15° C | 79% | 1010 hPa | - | - | - | - |
| 1777975919 | 15° C | 79% | 1010 hPa | - | - | - | - |
| 1777974924 | 15.56° C | 76% | 1010 hPa | - | - | - | - |
| 1777973821 | 16.11° C | 76% | 1010 hPa | - | - | - | - |
| 1777972811 | 16.11° C | 75% | 1010 hPa | - | - | - | - |
| 1777971707 | 16.67° C | 74% | 1010.1 hPa | - | - | - | - |
| 1777970526 | 16.67° C | 76% | 1010.1 hPa | - | - | - | - |
| 1777969535 | 16.11° C | 77% | 1010.1 hPa | - | - | - | - |
* Rain since midnight (hover to see other rain measurements)
** Current wind speed in m/s (hover to see current wind gust speed)